sensor_id;sensor_type;location;lat;lon;timestamp;temperature;humidity
666;DHT22;315;48.738;9.126;2024-01-30T00:00:59;5.40;29.60
666;DHT22;315;48.738;9.126;2024-01-30T00:03:24;5.30;21.30
666;DHT22;315;48.738;9.126;2024-01-30T00:05:50;5.30;20.80
666;DHT22;315;48.738;9.126;2024-01-30T00:08:15;5.40;23.70
666;DHT22;315;48.738;9.126;2024-01-30T00:10:41;5.50;20.60
666;DHT22;315;48.738;9.126;2024-01-30T00:13:06;5.50;1.00
666;DHT22;315;48.738;9.126;2024-01-30T00:15:33;5.50;2.60
666;DHT22;315;48.738;9.126;2024-01-30T00:18:00;5.50;6.10
666;DHT22;315;48.738;9.126;2024-01-30T00:20:25;5.60;4.10
666;DHT22;315;48.738;9.126;2024-01-30T00:22:51;5.50;1.00
666;DHT22;315;48.738;9.126;2024-01-30T00:25:16;5.50;1.00
666;DHT22;315;48.738;9.126;2024-01-30T00:27:42;5.50;1.00
666;DHT22;315;48.738;9.126;2024-01-30T00:30:07;5.50;1.00
666;DHT22;315;48.738;9.126;2024-01-30T00:32:33;5.50;1.00
666;DHT22;315;48.738;9.126;2024-01-30T00:34:59;5.50;1.00
666;DHT22;315;48.738;9.126;2024-01-30T00:37:24;5.50;1.00
666;DHT22;315;48.738;9.126;2024-01-30T00:39:50;5.50;1.00
666;DHT22;315;48.738;9.126;2024-01-30T00:42:15;5.50;1.00
666;DHT22;315;48.738;9.126;2024-01-30T00:44:41;5.60;1.00
666;DHT22;315;48.738;9.126;2024-01-30T00:47:06;5.70;1.00
666;DHT22;315;48.738;9.126;2024-01-30T00:49:32;5.70;1.00
666;DHT22;315;48.738;9.126;2024-01-30T00:51:57;5.70;1.00
666;DHT22;315;48.738;9.126;2024-01-30T00:54:23;5.80;1.00
666;DHT22;315;48.738;9.126;2024-01-30T00:56:48;5.80;1.00
666;DHT22;315;48.738;9.126;2024-01-30T00:59:14;5.70;1.00
666;DHT22;315;48.738;9.126;2024-01-30T01:01:40;5.70;1.00
666;DHT22;315;48.738;9.126;2024-01-30T01:04:05;5.70;1.00
666;DHT22;315;48.738;9.126;2024-01-30T01:06:31;5.70;1.00
666;DHT22;315;48.738;9.126;2024-01-30T01:08:56;5.70;1.00
666;DHT22;315;48.738;9.126;2024-01-30T01:11:21;5.80;1.00
666;DHT22;315;48.738;9.126;2024-01-30T01:13:48;5.70;1.00
666;DHT22;315;48.738;9.126;2024-01-30T01:16:13;5.70;1.00
666;DHT22;315;48.738;9.126;2024-01-30T01:18:39;5.70;1.00
666;DHT22;315;48.738;9.126;2024-01-30T01:21:04;5.70;1.00
666;DHT22;315;48.738;9.126;2024-01-30T01:23:30;5.70;1.00
666;DHT22;315;48.738;9.126;2024-01-30T01:25:55;5.80;1.00
666;DHT22;315;48.738;9.126;2024-01-30T01:28:21;5.70;1.00
666;DHT22;315;48.738;9.126;2024-01-30T01:30:46;5.70;1.00
666;DHT22;315;48.738;9.126;2024-01-30T01:33:12;5.70;1.00
666;DHT22;315;48.738;9.126;2024-01-30T01:35:39;5.80;1.00
666;DHT22;315;48.738;9.126;2024-01-30T01:38:05;5.80;1.00
666;DHT22;315;48.738;9.126;2024-01-30T01:40:31;5.70;1.00
666;DHT22;315;48.738;9.126;2024-01-30T01:42:56;5.70;1.00
666;DHT22;315;48.738;9.126;2024-01-30T01:45:22;5.60;1.00
666;DHT22;315;48.738;9.126;2024-01-30T01:47:52;5.60;1.00
666;DHT22;315;48.738;9.126;2024-01-30T01:50:18;5.50;1.00
666;DHT22;315;48.738;9.126;2024-01-30T01:52:47;5.50;1.00
666;DHT22;315;48.738;9.126;2024-01-30T01:55:14;5.50;1.00
666;DHT22;315;48.738;9.126;2024-01-30T01:57:41;5.50;1.00
666;DHT22;315;48.738;9.126;2024-01-30T02:00:08;5.50;1.00
666;DHT22;315;48.738;9.126;2024-01-30T02:02:36;5.50;1.00
666;DHT22;315;48.738;9.126;2024-01-30T02:05:02;5.50;1.00
666;DHT22;315;48.738;9.126;2024-01-30T02:07:28;5.60;1.00
666;DHT22;315;48.738;9.126;2024-01-30T02:09:54;5.60;1.00
666;DHT22;315;48.738;9.126;2024-01-30T02:12:20;5.60;1.00
666;DHT22;315;48.738;9.126;2024-01-30T02:14:49;5.40;1.00
666;DHT22;315;48.738;9.126;2024-01-30T02:17:15;5.40;1.10
666;DHT22;315;48.738;9.126;2024-01-30T02:19:41;5.30;1.00
666;DHT22;315;48.738;9.126;2024-01-30T02:22:07;5.40;1.00
666;DHT22;315;48.738;9.126;2024-01-30T02:24:33;5.40;1.00
666;DHT22;315;48.738;9.126;2024-01-30T02:26:58;5.40;1.00
666;DHT22;315;48.738;9.126;2024-01-30T02:29:24;5.30;8.00
666;DHT22;315;48.738;9.126;2024-01-30T02:31:49;5.20;14.80
666;DHT22;315;48.738;9.126;2024-01-30T02:34:16;5.20;23.40
666;DHT22;315;48.738;9.126;2024-01-30T02:36:45;5.20;27.60
666;DHT22;315;48.738;9.126;2024-01-30T02:39:10;5.20;25.10
666;DHT22;315;48.738;9.126;2024-01-30T02:41:36;5.00;28.70
666;DHT22;315;48.738;9.126;2024-01-30T02:44:03;5.00;45.80
666;DHT22;315;48.738;9.126;2024-01-30T02:46:29;4.90;50.60
666;DHT22;315;48.738;9.126;2024-01-30T02:48:54;4.90;57.70
666;DHT22;315;48.738;9.126;2024-01-30T02:51:20;4.90;44.70
666;DHT22;315;48.738;9.126;2024-01-30T02:53:45;4.90;51.00
666;DHT22;315;48.738;9.126;2024-01-30T02:56:11;4.90;48.60
666;DHT22;315;48.738;9.126;2024-01-30T02:58:37;4.90;52.00
666;DHT22;315;48.738;9.126;2024-01-30T03:01:03;4.80;54.60
666;DHT22;315;48.738;9.126;2024-01-30T03:03:28;4.80;53.60
666;DHT22;315;48.738;9.126;2024-01-30T03:05:54;4.80;56.70
666;DHT22;315;48.738;9.126;2024-01-30T03:08:19;4.70;53.00
666;DHT22;315;48.738;9.126;2024-01-30T03:10:45;4.70;53.10
666;DHT22;315;48.738;9.126;2024-01-30T03:13:11;4.70;49.00
666;DHT22;315;48.738;9.126;2024-01-30T03:15:36;4.70;50.50
666;DHT22;315;48.738;9.126;2024-01-30T03:18:02;4.70;58.80
666;DHT22;315;48.738;9.126;2024-01-30T03:20:29;4.70;69.00
666;DHT22;315;48.738;9.126;2024-01-30T03:22:55;4.70;58.80
666;DHT22;315;48.738;9.126;2024-01-30T03:25:21;4.60;61.30
666;DHT22;315;48.738;9.126;2024-01-30T03:27:46;4.50;59.20
666;DHT22;315;48.738;9.126;2024-01-30T03:30:12;4.50;72.20
666;DHT22;315;48.738;9.126;2024-01-30T03:32:37;4.50;77.40
666;DHT22;315;48.738;9.126;2024-01-30T03:35:03;4.40;84.60
666;DHT22;315;48.738;9.126;2024-01-30T03:37:29;4.40;88.20
666;DHT22;315;48.738;9.126;2024-01-30T03:39:55;4.30;92.60
666;DHT22;315;48.738;9.126;2024-01-30T03:42:20;4.20;98.30
666;DHT22;315;48.738;9.126;2024-01-30T03:44:46;4.20;99.90
666;DHT22;315;48.738;9.126;2024-01-30T03:47:11;4.20;99.90
666;DHT22;315;48.738;9.126;2024-01-30T03:49:37;4.20;99.90
666;DHT22;315;48.738;9.126;2024-01-30T03:52:03;4.30;99.90
666;DHT22;315;48.738;9.126;2024-01-30T03:54:29;4.20;99.90
666;DHT22;315;48.738;9.126;2024-01-30T03:56:54;4.20;99.90
666;DHT22;315;48.738;9.126;2024-01-30T03:59:20;4.20;99.90
666;DHT22;315;48.738;9.126;2024-01-30T04:01:50;4.20;99.90
666;DHT22;315;48.738;9.126;2024-01-30T04:04:16;4.20;99.90
666;DHT22;315;48.738;9.126;2024-01-30T04:06:41;4.20;99.90
666;DHT22;315;48.738;9.126;2024-01-30T04:09:07;4.20;99.90
666;DHT22;315;48.738;9.126;2024-01-30T04:11:32;4.20;99.90
666;DHT22;315;48.738;9.126;2024-01-30T04:13:58;4.10;99.90
666;DHT22;315;48.738;9.126;2024-01-30T04:16:23;4.10;99.90
666;DHT22;315;48.738;9.126;2024-01-30T04:18:49;4.00;99.90
666;DHT22;315;48.738;9.126;2024-01-30T04:21:14;4.00;99.90
666;DHT22;315;48.738;9.126;2024-01-30T04:23:41;3.90;99.90
666;DHT22;315;48.738;9.126;2024-01-30T04:26:06;4.00;99.90
666;DHT22;315;48.738;9.126;2024-01-30T04:28:32;4.00;99.90
666;DHT22;315;48.738;9.126;2024-01-30T04:30:58;4.00;99.90
666;DHT22;315;48.738;9.126;2024-01-30T04:33:23;4.00;99.90
666;DHT22;315;48.738;9.126;2024-01-30T04:35:49;4.00;99.90
666;DHT22;315;48.738;9.126;2024-01-30T04:38:14;4.00;99.90
666;DHT22;315;48.738;9.126;2024-01-30T04:40:40;4.00;99.90
666;DHT22;315;48.738;9.126;2024-01-30T04:43:06;3.90;99.90
666;DHT22;315;48.738;9.126;2024-01-30T04:45:31;3.90;99.90
666;DHT22;315;48.738;9.126;2024-01-30T04:47:57;3.90;99.90
666;DHT22;315;48.738;9.126;2024-01-30T04:50:23;3.80;99.90
666;DHT22;315;48.738;9.126;2024-01-30T04:52:49;3.80;99.90
666;DHT22;315;48.738;9.126;2024-01-30T04:55:14;3.80;99.90
666;DHT22;315;48.738;9.126;2024-01-30T04:57:40;3.70;99.90
666;DHT22;315;48.738;9.126;2024-01-30T05:00:06;3.60;99.90
666;DHT22;315;48.738;9.126;2024-01-30T05:02:32;3.60;99.90
666;DHT22;315;48.738;9.126;2024-01-30T05:04:57;3.60;99.90
666;DHT22;315;48.738;9.126;2024-01-30T05:07:24;3.60;99.90
666;DHT22;315;48.738;9.126;2024-01-30T05:09:50;3.50;99.90
666;DHT22;315;48.738;9.126;2024-01-30T05:12:15;3.60;99.90
666;DHT22;315;48.738;9.126;2024-01-30T05:14:41;3.50;99.90
666;DHT22;315;48.738;9.126;2024-01-30T05:17:06;3.50;99.90
666;DHT22;315;48.738;9.126;2024-01-30T05:19:33;3.50;99.90
666;DHT22;315;48.738;9.126;2024-01-30T05:21:59;3.50;99.90
666;DHT22;315;48.738;9.126;2024-01-30T05:24:24;3.50;99.90
666;DHT22;315;48.738;9.126;2024-01-30T05:26:50;3.50;99.90
666;DHT22;315;48.738;9.126;2024-01-30T05:29:16;3.50;99.90
666;DHT22;315;48.738;9.126;2024-01-30T05:31:42;3.50;99.90
666;DHT22;315;48.738;9.126;2024-01-30T05:34:07;3.50;99.90
666;DHT22;315;48.738;9.126;2024-01-30T05:36:34;3.50;99.90
666;DHT22;315;48.738;9.126;2024-01-30T05:39:00;3.60;99.90
666;DHT22;315;48.738;9.126;2024-01-30T05:41:25;3.60;99.90
666;DHT22;315;48.738;9.126;2024-01-30T05:43:50;3.60;99.90
666;DHT22;315;48.738;9.126;2024-01-30T05:46:16;3.60;99.90
666;DHT22;315;48.738;9.126;2024-01-30T05:48:41;3.50;99.90
666;DHT22;315;48.738;9.126;2024-01-30T05:51:07;3.60;99.90
666;DHT22;315;48.738;9.126;2024-01-30T05:53:33;3.60;99.90
666;DHT22;315;48.738;9.126;2024-01-30T05:56:01;3.60;99.90
666;DHT22;315;48.738;9.126;2024-01-30T05:58:27;3.60;99.90
666;DHT22;315;48.738;9.126;2024-01-30T06:00:52;3.60;99.90
666;DHT22;315;48.738;9.126;2024-01-30T06:03:17;3.60;99.90
666;DHT22;315;48.738;9.126;2024-01-30T06:05:43;3.60;99.90
666;DHT22;315;48.738;9.126;2024-01-30T06:08:09;3.50;99.90
666;DHT22;315;48.738;9.126;2024-01-30T06:10:34;3.50;99.90
666;DHT22;315;48.738;9.126;2024-01-30T06:12:59;3.50;99.90
666;DHT22;315;48.738;9.126;2024-01-30T06:15:26;3.50;99.90
666;DHT22;315;48.738;9.126;2024-01-30T06:17:51;3.50;99.90
666;DHT22;315;48.738;9.126;2024-01-30T06:20:17;3.60;99.90
666;DHT22;315;48.738;9.126;2024-01-30T06:22:43;3.60;99.90
666;DHT22;315;48.738;9.126;2024-01-30T06:25:08;3.60;99.90
666;DHT22;315;48.738;9.126;2024-01-30T06:27:34;3.60;99.90
666;DHT22;315;48.738;9.126;2024-01-30T06:30:01;3.60;99.90
666;DHT22;315;48.738;9.126;2024-01-30T06:32:27;3.60;99.90
666;DHT22;315;48.738;9.126;2024-01-30T06:34:54;3.60;99.90
666;DHT22;315;48.738;9.126;2024-01-30T06:37:19;3.60;99.90
666;DHT22;315;48.738;9.126;2024-01-30T06:39:44;3.50;99.90
666;DHT22;315;48.738;9.126;2024-01-30T06:42:10;3.50;99.90
666;DHT22;315;48.738;9.126;2024-01-30T06:44:37;3.40;99.90
666;DHT22;315;48.738;9.126;2024-01-30T06:47:02;3.40;99.90
666;DHT22;315;48.738;9.126;2024-01-30T06:49:28;3.40;99.90
666;DHT22;315;48.738;9.126;2024-01-30T06:51:53;3.40;99.90
666;DHT22;315;48.738;9.126;2024-01-30T06:54:19;3.40;99.90
666;DHT22;315;48.738;9.126;2024-01-30T06:56:44;3.50;99.90
666;DHT22;315;48.738;9.126;2024-01-30T06:59:10;3.50;99.90
666;DHT22;315;48.738;9.126;2024-01-30T07:01:35;3.50;99.90
666;DHT22;315;48.738;9.126;2024-01-30T07:04:01;3.60;99.90
666;DHT22;315;48.738;9.126;2024-01-30T07:06:26;3.60;99.90
666;DHT22;315;48.738;9.126;2024-01-30T07:08:52;3.60;99.90
666;DHT22;315;48.738;9.126;2024-01-30T07:11:21;3.60;99.90
666;DHT22;315;48.738;9.126;2024-01-30T07:13:48;3.70;99.90
666;DHT22;315;48.738;9.126;2024-01-30T07:16:14;3.70;99.90
666;DHT22;315;48.738;9.126;2024-01-30T07:18:40;3.80;99.90
666;DHT22;315;48.738;9.126;2024-01-30T07:21:05;3.80;99.90
666;DHT22;315;48.738;9.126;2024-01-30T07:23:31;3.90;99.90
666;DHT22;315;48.738;9.126;2024-01-30T07:25:57;4.00;99.90
666;DHT22;315;48.738;9.126;2024-01-30T07:28:22;4.10;99.90
666;DHT22;315;48.738;9.126;2024-01-30T07:30:48;4.30;99.90
666;DHT22;315;48.738;9.126;2024-01-30T07:33:14;4.40;99.90
666;DHT22;315;48.738;9.126;2024-01-30T07:35:39;4.60;99.90
666;DHT22;315;48.738;9.126;2024-01-30T07:38:05;5.00;99.90
666;DHT22;315;48.738;9.126;2024-01-30T07:40:30;5.30;99.90
666;DHT22;315;48.738;9.126;2024-01-30T07:42:57;5.40;99.90
666;DHT22;315;48.738;9.126;2024-01-30T07:45:22;5.60;99.90
666;DHT22;315;48.738;9.126;2024-01-30T07:47:50;5.70;99.90
666;DHT22;315;48.738;9.126;2024-01-30T07:50:16;5.60;99.90
666;DHT22;315;48.738;9.126;2024-01-30T07:52:42;5.50;99.90
666;DHT22;315;48.738;9.126;2024-01-30T07:55:07;5.50;99.90
666;DHT22;315;48.738;9.126;2024-01-30T07:57:33;5.40;99.90
666;DHT22;315;48.738;9.126;2024-01-30T08:00:00;5.50;99.90
666;DHT22;315;48.738;9.126;2024-01-30T08:02:25;5.50;99.90
666;DHT22;315;48.738;9.126;2024-01-30T08:04:51;5.70;99.90
666;DHT22;315;48.738;9.126;2024-01-30T08:07:16;5.90;99.90
666;DHT22;315;48.738;9.126;2024-01-30T08:09:43;6.10;99.90
666;DHT22;315;48.738;9.126;2024-01-30T08:12:09;6.20;99.90
666;DHT22;315;48.738;9.126;2024-01-30T08:14:34;6.40;99.90
666;DHT22;315;48.738;9.126;2024-01-30T08:17:00;6.60;99.90
666;DHT22;315;48.738;9.126;2024-01-30T08:19:25;7.10;99.90
666;DHT22;315;48.738;9.126;2024-01-30T08:21:51;7.60;99.90
666;DHT22;315;48.738;9.126;2024-01-30T08:24:16;8.60;99.90
666;DHT22;315;48.738;9.126;2024-01-30T08:26:42;9.50;99.90
666;DHT22;315;48.738;9.126;2024-01-30T08:29:07;10.50;99.90
666;DHT22;315;48.738;9.126;2024-01-30T08:31:33;11.00;99.90
666;DHT22;315;48.738;9.126;2024-01-30T08:33:58;11.80;99.90
666;DHT22;315;48.738;9.126;2024-01-30T08:36:24;12.70;99.90
666;DHT22;315;48.738;9.126;2024-01-30T08:38:50;13.10;99.90
666;DHT22;315;48.738;9.126;2024-01-30T08:41:16;13.50;98.50
666;DHT22;315;48.738;9.126;2024-01-30T08:43:41;14.30;96.00
666;DHT22;315;48.738;9.126;2024-01-30T08:46:07;14.70;94.00
666;DHT22;315;48.738;9.126;2024-01-30T08:48:32;14.70;92.30
666;DHT22;315;48.738;9.126;2024-01-30T08:50:58;14.60;91.30
666;DHT22;315;48.738;9.126;2024-01-30T08:53:23;14.30;90.80
666;DHT22;315;48.738;9.126;2024-01-30T08:55:49;14.20;90.90
666;DHT22;315;48.738;9.126;2024-01-30T08:58:15;14.10;92.10
666;DHT22;315;48.738;9.126;2024-01-30T09:00:43;13.20;93.00
666;DHT22;315;48.738;9.126;2024-01-30T09:03:09;13.10;93.50
666;DHT22;315;48.738;9.126;2024-01-30T09:05:34;13.50;93.00
666;DHT22;315;48.738;9.126;2024-01-30T09:08:00;13.90;91.80
666;DHT22;315;48.738;9.126;2024-01-30T09:10:25;14.00;92.00
666;DHT22;315;48.738;9.126;2024-01-30T09:12:51;14.20;91.30
666;DHT22;315;48.738;9.126;2024-01-30T09:15:16;14.90;90.40
666;DHT22;315;48.738;9.126;2024-01-30T09:17:42;15.60;86.40
666;DHT22;315;48.738;9.126;2024-01-30T09:20:08;16.30;82.60
666;DHT22;315;48.738;9.126;2024-01-30T09:22:34;16.30;78.40
666;DHT22;315;48.738;9.126;2024-01-30T09:25:00;16.00;78.40
666;DHT22;315;48.738;9.126;2024-01-30T09:27:25;14.80;79.90
666;DHT22;315;48.738;9.126;2024-01-30T09:29:51;13.80;85.10
666;DHT22;315;48.738;9.126;2024-01-30T09:32:17;14.00;86.70
666;DHT22;315;48.738;9.126;2024-01-30T09:34:43;15.30;84.10
666;DHT22;315;48.738;9.126;2024-01-30T09:37:08;16.20;78.50
666;DHT22;315;48.738;9.126;2024-01-30T09:39:34;16.80;75.70
666;DHT22;315;48.738;9.126;2024-01-30T09:44:35;16.30;76.30
666;DHT22;315;48.738;9.126;2024-01-30T09:47:02;16.20;76.50
666;DHT22;315;48.738;9.126;2024-01-30T09:49:34;16.00;76.60
666;DHT22;315;48.738;9.126;2024-01-30T09:52:03;15.90;77.70
666;DHT22;315;48.738;9.126;2024-01-30T09:54:31;16.10;76.60
666;DHT22;315;48.738;9.126;2024-01-30T09:56:57;16.50;76.00
666;DHT22;315;48.738;9.126;2024-01-30T09:59:23;17.00;75.60
666;DHT22;315;48.738;9.126;2024-01-30T10:01:49;17.40;73.20
666;DHT22;315;48.738;9.126;2024-01-30T10:04:15;17.50;70.90
666;DHT22;315;48.738;9.126;2024-01-30T10:06:41;17.50;70.20
666;DHT22;315;48.738;9.126;2024-01-30T10:09:07;17.30;71.80
666;DHT22;315;48.738;9.126;2024-01-30T10:11:34;17.10;73.10
666;DHT22;315;48.738;9.126;2024-01-30T10:14:00;16.80;73.20
666;DHT22;315;48.738;9.126;2024-01-30T10:16:26;16.50;74.70
666;DHT22;315;48.738;9.126;2024-01-30T10:18:51;16.20;74.80
666;DHT22;315;48.738;9.126;2024-01-30T10:21:17;16.00;76.90
666;DHT22;315;48.738;9.126;2024-01-30T10:23:46;15.70;79.30
666;DHT22;315;48.738;9.126;2024-01-30T10:26:11;15.60;79.20
666;DHT22;315;48.738;9.126;2024-01-30T10:28:37;15.60;79.30
666;DHT22;315;48.738;9.126;2024-01-30T10:31:03;15.50;81.10
666;DHT22;315;48.738;9.126;2024-01-30T10:33:29;15.50;80.80
666;DHT22;315;48.738;9.126;2024-01-30T10:36:03;15.20;77.20
666;DHT22;315;48.738;9.126;2024-01-30T10:38:30;14.20;75.90
666;DHT22;315;48.738;9.126;2024-01-30T10:40:57;13.60;78.50
666;DHT22;315;48.738;9.126;2024-01-30T10:43:29;13.70;88.80
666;DHT22;315;48.738;9.126;2024-01-30T10:45:57;14.00;80.00
666;DHT22;315;48.738;9.126;2024-01-30T10:48:30;13.70;80.20
666;DHT22;315;48.738;9.126;2024-01-30T10:50:55;13.70;82.10
666;DHT22;315;48.738;9.126;2024-01-30T10:53:22;13.60;79.70
666;DHT22;315;48.738;9.126;2024-01-30T10:55:50;13.60;80.10
666;DHT22;315;48.738;9.126;2024-01-30T10:58:16;13.60;80.50
666;DHT22;315;48.738;9.126;2024-01-30T11:00:42;13.80;79.30
666;DHT22;315;48.738;9.126;2024-01-30T11:03:08;13.90;80.60
666;DHT22;315;48.738;9.126;2024-01-30T11:05:34;14.20;78.30
666;DHT22;315;48.738;9.126;2024-01-30T11:08:11;14.20;77.40
666;DHT22;315;48.738;9.126;2024-01-30T11:10:47;14.30;78.50
666;DHT22;315;48.738;9.126;2024-01-30T11:13:15;14.40;79.80
666;DHT22;315;48.738;9.126;2024-01-30T11:15:41;14.40;77.60
666;DHT22;315;48.738;9.126;2024-01-30T11:18:07;14.40;77.30
666;DHT22;315;48.738;9.126;2024-01-30T11:20:33;14.30;76.80
666;DHT22;315;48.738;9.126;2024-01-30T11:23:01;14.30;77.60
666;DHT22;315;48.738;9.126;2024-01-30T11:25:33;14.40;77.60
666;DHT22;315;48.738;9.126;2024-01-30T11:27:59;14.60;77.40
666;DHT22;315;48.738;9.126;2024-01-30T11:30:26;14.80;77.00
666;DHT22;315;48.738;9.126;2024-01-30T11:32:59;15.00;75.40
666;DHT22;315;48.738;9.126;2024-01-30T11:35:25;15.10;73.70
666;DHT22;315;48.738;9.126;2024-01-30T11:37:51;15.10;74.50
666;DHT22;315;48.738;9.126;2024-01-30T11:40:16;15.00;75.90
666;DHT22;315;48.738;9.126;2024-01-30T11:42:42;14.80;75.40
666;DHT22;315;48.738;9.126;2024-01-30T11:45:08;15.00;75.40
666;DHT22;315;48.738;9.126;2024-01-30T11:47:37;14.80;75.60
666;DHT22;315;48.738;9.126;2024-01-30T11:50:04;14.60;76.80
666;DHT22;315;48.738;9.126;2024-01-30T11:52:33;14.50;76.90
666;DHT22;315;48.738;9.126;2024-01-30T11:55:00;14.80;76.80
666;DHT22;315;48.738;9.126;2024-01-30T11:57:27;15.00;75.60
666;DHT22;315;48.738;9.126;2024-01-30T11:59:52;15.10;74.30
666;DHT22;315;48.738;9.126;2024-01-30T12:02:18;15.00;74.70
666;DHT22;315;48.738;9.126;2024-01-30T12:04:44;15.00;74.90
666;DHT22;315;48.738;9.126;2024-01-30T12:07:10;15.00;74.70
666;DHT22;315;48.738;9.126;2024-01-30T12:09:36;14.90;75.10
666;DHT22;315;48.738;9.126;2024-01-30T12:12:01;14.80;75.50
666;DHT22;315;48.738;9.126;2024-01-30T12:14:27;14.40;76.10
666;DHT22;315;48.738;9.126;2024-01-30T12:16:52;14.40;77.30
666;DHT22;315;48.738;9.126;2024-01-30T12:19:22;14.30;77.10
666;DHT22;315;48.738;9.126;2024-01-30T12:21:56;14.40;78.40
666;DHT22;315;48.738;9.126;2024-01-30T12:24:24;14.50;77.10
666;DHT22;315;48.738;9.126;2024-01-30T12:26:50;14.50;77.50
666;DHT22;315;48.738;9.126;2024-01-30T12:29:17;14.60;77.70
666;DHT22;315;48.738;9.126;2024-01-30T12:31:42;14.70;76.70
666;DHT22;315;48.738;9.126;2024-01-30T12:34:09;14.70;77.50
666;DHT22;315;48.738;9.126;2024-01-30T12:36:34;14.80;75.80
666;DHT22;315;48.738;9.126;2024-01-30T12:39:01;14.90;75.80
666;DHT22;315;48.738;9.126;2024-01-30T12:41:27;15.20;74.40
666;DHT22;315;48.738;9.126;2024-01-30T12:43:57;15.70;73.60
666;DHT22;315;48.738;9.126;2024-01-30T12:46:27;16.40;70.10
666;DHT22;315;48.738;9.126;2024-01-30T12:48:53;16.60;69.60
666;DHT22;315;48.738;9.126;2024-01-30T12:51:19;17.10;67.40
666;DHT22;315;48.738;9.126;2024-01-30T12:53:44;17.20;64.80
666;DHT22;315;48.738;9.126;2024-01-30T12:56:12;17.00;65.40
666;DHT22;315;48.738;9.126;2024-01-30T12:58:37;16.50;66.80
666;DHT22;315;48.738;9.126;2024-01-30T13:01:03;16.50;66.90
666;DHT22;315;48.738;9.126;2024-01-30T13:03:28;16.80;66.40
666;DHT22;315;48.738;9.126;2024-01-30T13:05:54;17.40;64.80
666;DHT22;315;48.738;9.126;2024-01-30T13:08:21;17.50;62.50
666;DHT22;315;48.738;9.126;2024-01-30T13:10:47;17.50;62.50
666;DHT22;315;48.738;9.126;2024-01-30T13:13:12;18.20;61.80
666;DHT22;315;48.738;9.126;2024-01-30T13:15:38;19.80;58.10
666;DHT22;315;48.738;9.126;2024-01-30T13:18:03;21.40;54.10
666;DHT22;315;48.738;9.126;2024-01-30T13:20:30;22.70;48.50
666;DHT22;315;48.738;9.126;2024-01-30T13:22:56;22.40;47.30
666;DHT22;315;48.738;9.126;2024-01-30T13:25:21;22.60;47.60
666;DHT22;315;48.738;9.126;2024-01-30T13:27:47;21.90;46.40
666;DHT22;315;48.738;9.126;2024-01-30T13:30:12;22.10;45.80
666;DHT22;315;48.738;9.126;2024-01-30T13:32:38;21.70;45.60
666;DHT22;315;48.738;9.126;2024-01-30T13:35:04;22.50;44.60
666;DHT22;315;48.738;9.126;2024-01-30T13:37:29;21.40;44.90
666;DHT22;315;48.738;9.126;2024-01-30T13:39:55;20.00;46.90
666;DHT22;315;48.738;9.126;2024-01-30T13:42:22;18.90;48.40
666;DHT22;315;48.738;9.126;2024-01-30T13:44:48;18.30;50.50
666;DHT22;315;48.738;9.126;2024-01-30T13:47:13;17.60;50.80
666;DHT22;315;48.738;9.126;2024-01-30T13:49:39;17.30;52.60
666;DHT22;315;48.738;9.126;2024-01-30T13:52:05;17.60;52.50
666;DHT22;315;48.738;9.126;2024-01-30T13:54:30;18.00;51.60
666;DHT22;315;48.738;9.126;2024-01-30T13:56:56;19.00;50.50
666;DHT22;315;48.738;9.126;2024-01-30T13:59:22;18.30;50.50
666;DHT22;315;48.738;9.126;2024-01-30T14:01:51;17.50;53.00
666;DHT22;315;48.738;9.126;2024-01-30T14:04:16;16.80;54.00
666;DHT22;315;48.738;9.126;2024-01-30T14:06:42;16.40;55.10
666;DHT22;315;48.738;9.126;2024-01-30T14:09:08;16.40;56.00
666;DHT22;315;48.738;9.126;2024-01-30T14:11:33;16.00;56.80
666;DHT22;315;48.738;9.126;2024-01-30T14:13:59;15.70;57.80
666;DHT22;315;48.738;9.126;2024-01-30T14:16:24;15.60;59.00
666;DHT22;315;48.738;9.126;2024-01-30T14:18:50;15.40;59.00
666;DHT22;315;48.738;9.126;2024-01-30T14:21:16;15.10;60.00
666;DHT22;315;48.738;9.126;2024-01-30T14:23:41;14.90;61.00
666;DHT22;315;48.738;9.126;2024-01-30T14:26:07;14.80;62.20
666;DHT22;315;48.738;9.126;2024-01-30T14:28:32;14.80;62.20
666;DHT22;315;48.738;9.126;2024-01-30T14:30:58;14.60;62.60
666;DHT22;315;48.738;9.126;2024-01-30T14:33:24;14.70;63.70
666;DHT22;315;48.738;9.126;2024-01-30T14:35:50;14.60;64.70
666;DHT22;315;48.738;9.126;2024-01-30T14:38:16;14.60;64.70
666;DHT22;315;48.738;9.126;2024-01-30T14:40:41;14.50;64.60
666;DHT22;315;48.738;9.126;2024-01-30T14:43:07;14.40;65.60
666;DHT22;315;48.738;9.126;2024-01-30T14:45:32;14.30;66.10
666;DHT22;315;48.738;9.126;2024-01-30T14:47:58;14.30;67.60
666;DHT22;315;48.738;9.126;2024-01-30T14:50:25;14.20;68.50
666;DHT22;315;48.738;9.126;2024-01-30T14:52:51;14.30;68.50
666;DHT22;315;48.738;9.126;2024-01-30T14:55:17;14.40;69.20
666;DHT22;315;48.738;9.126;2024-01-30T14:57:43;14.50;72.10
666;DHT22;315;48.738;9.126;2024-01-30T15:00:10;14.40;73.10
666;DHT22;315;48.738;9.126;2024-01-30T15:02:36;14.20;75.10
666;DHT22;315;48.738;9.126;2024-01-30T15:05:02;14.10;76.50
666;DHT22;315;48.738;9.126;2024-01-30T15:07:27;13.90;79.40
666;DHT22;315;48.738;9.126;2024-01-30T15:09:54;13.80;78.40
666;DHT22;315;48.738;9.126;2024-01-30T15:12:19;13.60;81.50
666;DHT22;315;48.738;9.126;2024-01-30T15:14:45;13.40;84.50
666;DHT22;315;48.738;9.126;2024-01-30T15:17:19;13.20;86.20
666;DHT22;315;48.738;9.126;2024-01-30T15:19:47;13.10;88.50
666;DHT22;315;48.738;9.126;2024-01-30T15:22:13;12.80;90.70
666;DHT22;315;48.738;9.126;2024-01-30T15:24:38;12.70;92.10
666;DHT22;315;48.738;9.126;2024-01-30T15:27:04;12.70;92.50
666;DHT22;315;48.738;9.126;2024-01-30T15:29:30;12.60;93.30
666;DHT22;315;48.738;9.126;2024-01-30T15:31:55;12.50;94.90
666;DHT22;315;48.738;9.126;2024-01-30T15:34:21;12.50;95.50
666;DHT22;315;48.738;9.126;2024-01-30T15:36:46;12.40;96.00
666;DHT22;315;48.738;9.126;2024-01-30T15:39:12;12.40;96.40
666;DHT22;315;48.738;9.126;2024-01-30T15:41:40;12.30;96.70
666;DHT22;315;48.738;9.126;2024-01-30T15:44:06;12.30;97.50
666;DHT22;315;48.738;9.126;2024-01-30T15:46:31;12.30;97.50
666;DHT22;315;48.738;9.126;2024-01-30T15:48:57;12.20;98.40
666;DHT22;315;48.738;9.126;2024-01-30T15:51:23;12.10;99.00
666;DHT22;315;48.738;9.126;2024-01-30T15:53:49;12.00;99.90
666;DHT22;315;48.738;9.126;2024-01-30T15:56:15;12.00;99.90
666;DHT22;315;48.738;9.126;2024-01-30T15:58:41;11.90;99.90
666;DHT22;315;48.738;9.126;2024-01-30T16:01:07;11.80;99.90
666;DHT22;315;48.738;9.126;2024-01-30T16:03:32;11.70;99.90
666;DHT22;315;48.738;9.126;2024-01-30T16:05:58;11.70;99.90
666;DHT22;315;48.738;9.126;2024-01-30T16:08:23;11.60;99.90
666;DHT22;315;48.738;9.126;2024-01-30T16:10:49;11.50;99.90
666;DHT22;315;48.738;9.126;2024-01-30T16:13:14;11.50;99.90
666;DHT22;315;48.738;9.126;2024-01-30T16:15:40;11.40;99.90
666;DHT22;315;48.738;9.126;2024-01-30T16:18:08;11.40;99.90
666;DHT22;315;48.738;9.126;2024-01-30T16:20:33;11.30;99.90
666;DHT22;315;48.738;9.126;2024-01-30T16:22:59;11.20;99.90
666;DHT22;315;48.738;9.126;2024-01-30T16:25:24;11.10;99.90
666;DHT22;315;48.738;9.126;2024-01-30T16:27:50;11.00;99.90
666;DHT22;315;48.738;9.126;2024-01-30T16:30:15;11.00;99.90
666;DHT22;315;48.738;9.126;2024-01-30T16:32:43;11.00;99.90
666;DHT22;315;48.738;9.126;2024-01-30T16:35:09;11.00;99.90
666;DHT22;315;48.738;9.126;2024-01-30T16:37:34;11.00;99.90
666;DHT22;315;48.738;9.126;2024-01-30T16:40:00;10.90;99.90